Anderson, Indiana
Current Conditions -  °F | °C
As of 1:53 AM on Saturday 01 Nov 2014 (Local Time) from KMIE Reporting Station
Overcast Overcast  
Wind Chill: 21°   Ceiling: 3700
Heat Index: 33°   Visibility: 10mi
Dew Point: 27°   Wind: 21mph
Humidity: 78%   Direction: 350°N
Pressure: 30.13"   Gusts: NA
Location:  40.1°N, 85.68°W
Report Text: KMIE 010553Z AUTO 35018KT 10SM FEW023 SCT029 OVC037 01/M03 A3013 RMK AO2 PK WND 36026/0540 SLP208 60003 I6000 T00061028 10017 20006 51003
Loading
Personal Weather Stations






























Interactive Weather Map
Tropical Storm Tracking
New forecast layout! Learn more

10-Day Weather Forecast

Advertisements
Track Severe Weather on mobile